Time;durP1;ratioP1;P1;durP2;ratioP2;P2;SDS_P1;SDS_P2;PMS_P1;PMS_P2;Temp;Humidity;BMP_temperature;BMP_pressure;BME280_temperature;BME280_humidity;BME280_pressure;Samples;Min_cycle;Max_cycle;Signal;HPM_P1;HPM_P2
2022/07/17 00:01:14;;;;;;;0.93;0.80;;;;;;;22.36;41.48;94180.13;4992373;28;20031;-92
2022/07/17 00:03:39;;;;;;;0.70;0.70;;;;;;;22.34;41.62;94174.38;4976590;28;20037;-94
2022/07/17 00:06:05;;;;;;;0.73;0.63;;;;;;;22.37;41.90;94178.84;4976295;28;20042;-93
2022/07/17 00:08:31;;;;;;;1.17;0.80;;;;;;;22.35;41.40;94173.09;4976782;28;20042;-92
2022/07/17 00:10:57;;;;;;;1.08;0.88;;;;;;;22.34;41.46;94177.88;4976785;28;20042;-92
2022/07/17 00:13:24;;;;;;;1.05;0.93;;;;;;;22.32;41.74;94172.13;4975583;28;20046;-93
2022/07/17 00:15:49;;;;;;;0.80;0.70;;;;;;;22.33;41.58;94181.16;4993212;28;20037;-93
2022/07/17 00:18:15;;;;;;;2.30;1.00;;;;;;;22.34;41.37;94180.63;4999895;28;20518;-93
2022/07/17 00:20:40;;;;;;;0.95;0.88;;;;;;;22.34;41.80;94177.13;4998944;28;20044;-92
2022/07/17 00:23:06;;;;;;;0.95;0.68;;;;;;;22.34;41.60;94175.13;4987939;28;20449;-93
2022/07/17 00:25:32;;;;;;;0.60;0.60;;;;;;;22.33;41.80;94173.63;4998959;28;20113;-94
2022/07/17 00:27:58;;;;;;;0.93;0.80;;;;;;;22.34;41.37;94172.38;4999092;28;20029;-92
2022/07/17 00:30:24;;;;;;;0.65;0.60;;;;;;;22.34;41.67;94171.63;4998416;28;20037;-93
2022/07/17 00:32:49;;;;;;;0.65;0.65;;;;;;;22.33;41.68;94170.88;4998016;28;20091;-93
2022/07/17 00:35:14;;;;;;;1.33;1.10;;;;;;;22.32;41.71;94174.13;4999013;28;20070;-93
2022/07/17 00:37:41;;;;;;;1.13;0.98;;;;;;;22.33;41.60;94175.63;5015328;28;20094;-93
2022/07/17 00:40:07;;;;;;;0.60;0.60;;;;;;;22.34;41.97;94177.13;4998292;28;20033;-93
2022/07/17 00:42:33;;;;;;;0.82;0.80;;;;;;;22.32;41.79;94163.13;4998441;28;20060;-93
2022/07/17 00:44:58;;;;;;;0.77;0.75;;;;;;;22.33;41.43;94173.63;4998692;28;20036;-91
2022/07/17 00:47:24;;;;;;;0.77;0.50;;;;;;;22.31;41.75;94178.91;4997619;28;20403;-94
2022/07/17 00:49:49;;;;;;;0.88;0.70;;;;;;;22.32;41.81;94172.13;4998710;28;20036;-93
2022/07/17 00:52:15;;;;;;;0.82;0.82;;;;;;;22.31;41.79;94176.16;4982933;28;20029;-92
2022/07/17 00:54:42;;;;;;;1.70;1.00;;;;;;;22.29;41.88;94175.94;5014436;28;20048;-94
2022/07/17 00:57:10;;;;;;;0.63;0.63;;;;;;;22.31;41.81;94183.66;4997550;28;20782;-91
2022/07/17 00:59:49;;;;;;;0.60;0.60;;;;;;;22.31;42.00;94186.41;4994598;28;20037;-92
2022/07/17 01:02:15;;;;;;;0.80;0.80;;;;;;;22.31;41.81;94184.41;5006520;28;20034;-93
2022/07/17 01:04:41;;;;;;;1.00;0.90;;;;;;;22.30;41.94;94187.72;4991340;28;20274;-93
2022/07/17 01:07:06;;;;;;;1.08;0.73;;;;;;;22.30;41.82;94184.97;5008001;28;20037;-93
2022/07/17 01:09:32;;;;;;;0.90;0.70;;;;;;;22.30;41.88;94187.72;5007913;28;20033;-91
2022/07/17 01:11:58;;;;;;;0.70;0.70;;;;;;;22.29;41.81;94186.97;4975783;28;20447;-92
2022/07/17 01:14:24;;;;;;;1.40;0.73;;;;;;;22.29;41.92;94192.47;4990942;28;20416;-94
2022/07/17 01:16:50;;;;;;;1.15;0.88;;;;;;;22.29;41.71;94178.69;5010920;28;20040;-92
2022/07/17 01:19:16;;;;;;;0.80;0.80;;;;;;;22.27;41.81;94189.50;5010371;28;20499;-94
2022/07/17 01:21:43;;;;;;;1.38;1.00;;;;;;;22.28;41.76;94190.25;5030395;28;20047;-94
2022/07/17 01:24:09;;;;;;;1.00;0.85;;;;;;;22.30;41.79;94202.19;5019457;28;20041;-93
2022/07/17 01:26:34;;;;;;;1.00;1.00;;;;;;;22.28;41.96;94196.50;5011226;28;20026;-94
2022/07/17 01:29:00;;;;;;;0.90;0.77;;;;;;;22.28;41.75;94184.72;4994632;28;20391;-93
2022/07/17 01:31:26;;;;;;;0.95;0.73;;;;;;;22.30;41.84;94191.19;4994202;28;20033;-93
2022/07/17 01:33:51;;;;;;;1.27;0.88;;;;;;;22.26;41.77;94199.00;4997489;28;20479;-91
2022/07/17 01:36:24;;;;;;;1.00;0.88;;;;;;;22.26;42.10;94195.50;4997391;28;20044;-92
2022/07/17 01:38:50;;;;;;;0.73;0.73;;;;;;;22.28;41.96;94196.50;5014568;28;20025;-94
2022/07/17 01:41:16;;;;;;;0.93;0.80;;;;;;;22.26;41.91;94201.03;4997143;28;20288;-94
2022/07/17 01:43:41;;;;;;;0.88;0.70;;;;;;;22.27;41.90;94197.00;4997677;28;20037;-93
2022/07/17 01:46:07;;;;;;;1.40;0.90;;;;;;;22.25;42.02;94189.25;5013865;28;20033;-92
2022/07/17 01:48:33;;;;;;;0.93;0.80;;;;;;;22.26;41.91;94192.75;4997492;28;20060;-94
2022/07/17 01:50:58;;;;;;;0.95;0.88;;;;;;;22.25;42.02;94189.25;5013957;28;20044;-91
2022/07/17 01:53:24;;;;;;;1.40;0.90;;;;;;;22.27;41.91;94186.00;4997196;28;20103;-91
2022/07/17 01:55:50;;;;;;;1.20;0.65;;;;;;;22.25;41.55;94192.00;4993752;28;20045;-92
2022/07/17 01:58:15;;;;;;;0.90;0.82;;;;;;;22.26;42.01;94192.75;4977612;28;20033;-94
2022/07/17 02:00:41;;;;;;;1.25;0.93;;;;;;;22.22;42.08;94187.53;4977934;28;20510;-93
2022/07/17 02:03:06;;;;;;;1.15;0.90;;;;;;;22.26;42.26;94185.25;4976700;28;20121;-93
2022/07/17 02:05:32;;;;;;;0.82;0.77;;;;;;;22.25;42.09;94200.28;4978658;28;20041;-93
2022/07/17 02:07:57;;;;;;;1.27;1.00;;;;;;;22.25;41.95;94191.28;4991008;28;20049;-93
2022/07/17 02:10:23;;;;;;;0.75;0.75;;;;;;;22.25;41.97;94194.78;4989639;28;20060;-91
2022/07/17 02:12:48;;;;;;;0.70;0.70;;;;;;;22.25;42.11;94197.53;4981519;28;20045;-91
2022/07/17 02:15:14;;;;;;;4.18;0.93;;;;;;;22.25;41.96;94191.28;4981088;28;20464;-93
2022/07/17 02:17:40;;;;;;;0.70;0.70;;;;;;;22.24;41.89;94190.53;5003093;28;20040;-92
2022/07/17 02:20:07;;;;;;;0.75;0.75;;;;;;;22.23;41.74;94197.28;5012335;28;20045;-93
2022/07/17 02:22:32;;;;;;;0.90;0.60;;;;;;;22.25;42.01;94196.78;5034558;28;20108;-93
2022/07/17 02:24:58;;;;;;;0.70;0.70;;;;;;;22.25;41.88;94197.53;5016751;28;20518;-93
2022/07/17 02:27:23;;;;;;;0.60;0.60;;;;;;;22.23;41.85;94198.03;5017401;28;20040;-93
2022/07/17 02:29:49;;;;;;;0.85;0.80;;;;;;;22.23;42.07;94197.28;4998385;28;20025;-93
2022/07/17 02:32:14;;;;;;;1.38;0.73;;;;;;;22.23;41.85;94192.53;5013794;28;20037;-93
2022/07/17 02:34:40;;;;;;;0.73;0.70;;;;;;;22.21;41.88;94189.53;4997327;28;20033;-92
2022/07/17 02:37:05;;;;;;;1.25;0.60;;;;;;;22.21;41.87;94189.53;4997267;28;20037;-93
2022/07/17 02:39:30;;;;;;;0.50;0.50;;;;;;;22.21;42.10;94188.78;4997448;28;20041;-91
2022/07/17 02:41:56;;;;;;;1.17;0.95;;;;;;;22.18;42.01;94201.59;4997409;28;20038;-94
2022/07/17 02:44:21;;;;;;;1.23;0.85;;;;;;;22.20;42.19;94192.81;4996785;28;20033;-92
2022/07/17 02:46:47;;;;;;;0.85;0.60;;;;;;;22.19;42.13;94192.06;4997552;28;20041;-92
2022/07/17 02:49:14;;;;;;;0.90;0.77;;;;;;;22.19;41.97;94192.06;4997302;28;20037;-93
2022/07/17 02:51:40;;;;;;;0.98;0.82;;;;;;;22.21;42.05;94197.81;5013978;28;20033;-94
2022/07/17 02:54:06;;;;;;;0.80;0.75;;;;;;;22.18;42.05;94184.31;4996526;28;20037;-92
2022/07/17 02:56:31;;;;;;;0.70;0.70;;;;;;;22.21;41.83;94189.53;4997497;28;20030;-93
2022/07/17 02:58:56;;;;;;;0.98;0.70;;;;;;;22.20;42.06;94188.06;4997683;28;20037;-94
2022/07/17 03:01:22;;;;;;;0.47;0.47;;;;;;;22.20;41.99;94190.06;4993271;28;20038;-94
2022/07/17 03:03:47;;;;;;;1.15;0.73;;;;;;;22.18;41.94;94196.09;4978000;28;20042;-91
2022/07/17 03:06:13;;;;;;;1.13;0.82;;;;;;;22.19;41.99;94197.56;4977228;28;20108;-92
2022/07/17 03:08:39;;;;;;;0.98;0.88;;;;;;;22.20;42.23;94190.06;4994012;28;20034;-92
2022/07/17 03:11:05;;;;;;;0.77;0.70;;;;;;;22.17;42.02;94197.34;4977491;28;20037;-93
2022/07/17 03:13:30;;;;;;;0.73;0.70;;;;;;;22.16;41.94;94201.34;4993860;28;20046;-92
2022/07/17 03:15:57;;;;;;;0.90;0.80;;;;;;;22.19;42.20;94205.09;4993346;28;20041;-93
2022/07/17 03:18:22;;;;;;;0.60;0.60;;;;;;;22.17;42.45;94204.84;4996357;28;20029;-94
2022/07/17 03:20:47;;;;;;;1.65;0.90;;;;;;;22.18;42.27;94201.59;5000318;28;20500;-92
2022/07/17 03:23:13;;;;;;;1.13;1.00;;;;;;;22.18;42.39;94204.34;4999574;28;20095;-93
2022/07/17 03:25:38;;;;;;;1.20;0.88;;;;;;;22.17;42.29;94205.59;5000038;28;20044;-92
2022/07/17 03:28:04;;;;;;;1.35;0.60;;;;;;;22.17;42.63;94204.84;5000071;28;20041;-92
2022/07/17 03:30:29;;;;;;;0.75;0.70;;;;;;;22.17;42.52;94204.84;4999804;28;20048;-94
2022/07/17 03:32:54;;;;;;;1.02;0.93;;;;;;;22.17;42.38;94202.84;4999603;28;20025;-95
2022/07/17 03:35:20;;;;;;;0.88;0.75;;;;;;;22.16;42.25;94209.63;4999117;28;20037;-92
2022/07/17 03:37:45;;;;;;;0.70;0.70;;;;;;;22.16;42.40;94204.13;5000206;28;20033;-91
2022/07/17 03:40:11;;;;;;;0.93;0.77;;;;;;;22.17;42.24;94204.84;4999312;28;20033;-94
2022/07/17 03:42:36;;;;;;;0.70;0.70;;;;;;;22.19;42.22;94207.84;4999470;28;20044;-93
2022/07/17 03:45:02;;;;;;;0.77;0.68;;;;;;;22.19;41.98;94205.84;4999587;28;20037;-93
2022/07/17 03:47:27;;;;;;;0.82;0.70;;;;;;;22.19;42.44;94210.59;4998551;28;20041;-92
2022/07/17 03:49:53;;;;;;;1.20;1.00;;;;;;;22.20;42.43;94206.59;4999736;28;20037;-94
2022/07/17 03:52:18;;;;;;;0.73;0.73;;;;;;;22.17;42.44;94208.34;4998903;28;20467;-92
2022/07/17 03:54:44;;;;;;;0.70;0.70;;;;;;;22.19;42.34;94216.84;4974972;28;20477;-94
2022/07/17 03:57:09;;;;;;;0.75;0.75;;;;;;;22.17;42.39;94213.88;4958471;28;20492;-93
2022/07/17 03:59:35;;;;;;;1.00;0.80;;;;;;;22.21;42.09;94213.59;4958997;28;20408;-93
2022/07/17 04:02:01;;;;;;;0.90;0.80;;;;;;;22.25;42.19;94216.06;4959286;28;20060;-93
2022/07/17 04:04:26;;;;;;;1.05;0.95;;;;;;;22.31;42.32;94211.97;4958762;28;20141;-93
2022/07/17 04:06:52;;;;;;;1.27;0.90;;;;;;;22.31;42.14;94222.22;4988304;28;20034;-93
2022/07/17 04:09:17;;;;;;;1.13;0.80;;;;;;;22.36;42.08;94224.94;4974524;28;20038;-94
2022/07/17 04:11:43;;;;;;;1.13;0.75;;;;;;;22.41;41.99;94212.38;4975147;28;20113;-93
2022/07/17 04:14:08;;;;;;;1.10;0.80;;;;;;;22.36;42.22;94219.44;4990319;28;20034;-93
2022/07/17 04:16:34;;;;;;;1.35;0.90;;;;;;;22.39;41.91;94217.66;4990923;28;20045;-93
2022/07/17 04:18:59;;;;;;;1.25;0.95;;;;;;;22.38;42.00;94213.41;4969916;28;20095;-93
2022/07/17 04:21:27;;;;;;;0.77;0.70;;;;;;;22.38;41.96;94216.91;4977133;28;20091;-94
2022/07/17 04:23:53;;;;;;;0.75;0.70;;;;;;;22.40;42.24;94225.41;4978328;28;20527;-92
2022/07/17 04:26:18;;;;;;;0.75;0.75;;;;;;;22.37;41.95;94225.69;5019860;28;20047;-92
2022/07/17 04:28:44;;;;;;;0.80;0.60;;;;;;;22.37;41.89;94215.41;5015085;28;20044;-93
2022/07/17 04:31:09;;;;;;;0.60;0.60;;;;;;;22.40;41.88;94213.63;5014649;28;20398;-92
2022/07/17 04:33:35;;;;;;;1.23;0.85;;;;;;;22.40;41.90;94219.13;5015829;28;20032;-92
2022/07/17 04:36:00;;;;;;;0.93;0.70;;;;;;;22.38;41.71;94225.16;5014758;28;20037;-93
2022/07/17 04:38:27;;;;;;;1.70;0.90;;;;;;;22.38;41.90;94218.91;5001382;28;20107;-92
2022/07/17 04:40:52;;;;;;;0.85;0.82;;;;;;;22.40;41.78;94224.66;4998462;28;20490;-93
2022/07/17 04:43:18;;;;;;;0.80;0.80;;;;;;;22.41;42.01;94220.63;4998273;28;20048;-93
2022/07/17 04:45:43;;;;;;;0.65;0.50;;;;;;;22.42;41.82;94214.59;4998831;28;20094;-93
2022/07/17 04:48:08;;;;;;;1.58;0.50;;;;;;;22.40;41.96;94210.88;5014132;28;20033;-93
2022/07/17 04:50:34;;;;;;;0.70;0.60;;;;;;;22.40;41.99;94217.13;4998624;28;20349;-93
2022/07/17 04:53:00;;;;;;;1.02;0.77;;;;;;;22.41;41.88;94213.13;4994600;28;20049;-93
2022/07/17 04:55:26;;;;;;;0.85;0.60;;;;;;;22.41;41.84;94223.38;4994888;28;20041;-92
2022/07/17 04:57:51;;;;;;;0.60;0.47;;;;;;;22.43;41.82;94224.38;4995038;28;20045;-94
2022/07/17 05:00:17;;;;;;;0.70;0.70;;;;;;;22.43;41.83;94218.84;4951455;28;20079;-92
2022/07/17 05:02:42;;;;;;;0.80;0.80;;;;;;;22.44;41.95;94217.59;4919786;28;20524;-94
2022/07/17 05:05:08;;;;;;;0.60;0.60;;;;;;;22.48;41.58;94223.56;4919316;28;20104;-92
2022/07/17 05:07:33;;;;;;;0.68;0.68;;;;;;;22.47;41.85;94230.34;4920045;28;20138;-93
2022/07/17 05:09:59;;;;;;;0.38;0.38;;;;;;;22.49;41.93;94232.56;4941327;28;20039;-92
2022/07/17 05:12:24;;;;;;;0.50;0.50;;;;;;;22.48;42.03;94231.84;4954098;28;20049;-93
2022/07/17 05:14:49;;;;;;;0.40;0.40;;;;;;;22.48;41.77;94228.31;4954867;28;20046;-93
2022/07/17 05:17:16;;;;;;;1.10;0.60;;;;;;;22.52;41.64;94234.28;4953908;28;20050;-92
2022/07/17 05:19:41;;;;;;;0.85;0.60;;;;;;;22.52;41.67;94229.50;4935290;28;20038;-92
2022/07/17 05:22:07;;;;;;;0.80;0.52;;;;;;;22.52;41.63;94232.25;4919708;28;20082;-94
2022/07/17 05:24:33;;;;;;;0.88;0.50;;;;;;;22.54;41.81;94226.22;4918492;28;20537;-94
2022/07/17 05:26:59;;;;;;;0.68;0.60;;;;;;;22.56;41.70;94224.47;4934790;28;20047;-92
2022/07/17 05:29:25;;;;;;;0.65;0.57;;;;;;;22.56;41.75;94234.72;4934945;28;20163;-93
2022/07/17 05:31:51;;;;;;;0.85;0.68;;;;;;;22.56;41.86;94232.72;4960970;28;20439;-91
2022/07/17 05:34:17;;;;;;;0.50;0.47;;;;;;;22.58;42.10;94227.44;4960577;28;20042;-94
2022/07/17 05:36:43;;;;;;;0.50;0.50;;;;;;;22.60;41.84;94237.19;4954064;28;20405;-92
2022/07/17 05:39:08;;;;;;;0.90;0.73;;;;;;;22.60;41.78;94239.97;4969907;28;20026;-92
2022/07/17 05:41:34;;;;;;;0.70;0.60;;;;;;;22.61;41.83;94241.44;4956329;28;20041;-92
2022/07/17 05:43:59;;;;;;;0.47;0.47;;;;;;;22.60;41.61;94229.69;4957293;28;20034;-94
2022/07/17 05:46:25;;;;;;;0.70;0.60;;;;;;;22.62;41.67;94234.69;4973564;28;20130;-92
2022/07/17 05:48:51;;;;;;;0.68;0.63;;;;;;;22.64;41.63;94240.41;4973115;28;20039;-93
2022/07/17 05:51:17;;;;;;;0.98;0.68;;;;;;;22.65;41.76;94233.63;4986878;28;20033;-93
2022/07/17 05:53:42;;;;;;;0.82;0.60;;;;;;;22.66;41.67;94240.66;4997770;28;20029;-92
2022/07/17 05:56:08;;;;;;;1.33;0.73;;;;;;;22.68;41.65;94240.88;4997090;28;20263;-92
2022/07/17 05:58:33;;;;;;;0.50;0.50;;;;;;;22.68;41.77;94246.38;4997704;28;20506;-95
2022/07/17 06:00:59;;;;;;;0.55;0.55;;;;;;;22.66;41.69;94244.16;4997768;28;20391;-92
2022/07/17 06:03:24;;;;;;;0.50;0.50;;;;;;;22.69;41.64;94240.34;4997116;28;20427;-94
2022/07/17 06:05:50;;;;;;;0.50;0.50;;;;;;;22.71;41.50;94245.34;4998665;28;20029;-93
2022/07/17 06:08:15;;;;;;;0.60;0.55;;;;;;;22.71;41.70;94242.59;4996782;28;20060;-91
2022/07/17 06:10:41;;;;;;;0.95;0.50;;;;;;;22.73;41.41;94243.56;4997287;28;20044;-92
2022/07/17 06:13:06;;;;;;;0.55;0.55;;;;;;;22.75;41.64;94249.28;4997508;28;20040;-93
2022/07/17 06:15:32;;;;;;;0.70;0.70;;;;;;;22.74;41.68;94242.28;4997033;28;20029;-94
2022/07/17 06:18:03;;;;;;;0.40;0.40;;;;;;;22.74;41.59;94239.53;5013690;28;20507;-93
2022/07/17 06:20:29;;;;;;;0.90;0.60;;;;;;;22.76;41.64;94239.75;5012254;28;20095;-93
2022/07/17 06:22:54;;;;;;;0.50;0.40;;;;;;;22.79;41.50;94249.03;5013597;28;20519;-92
2022/07/17 06:25:20;;;;;;;0.60;0.50;;;;;;;22.80;41.76;94242.25;5013298;28;20399;-93
2022/07/17 06:27:45;;;;;;;0.68;0.68;;;;;;;22.80;41.57;94250.53;5028540;28;20029;-93
2022/07/17 06:30:13;;;;;;;1.85;0.47;;;;;;;22.80;41.49;94245.75;5013356;28;20483;-92
2022/07/17 06:32:38;;;;;;;0.50;0.50;;;;;;;22.81;41.65;94244.50;5030090;28;20040;-93
2022/07/17 06:35:04;;;;;;;0.98;0.68;;;;;;;22.84;41.33;94239.94;5029999;28;20818;-93
2022/07/17 06:37:30;;;;;;;0.65;0.60;;;;;;;22.83;41.57;94241.97;5013261;28;20110;-93
2022/07/17 06:39:55;;;;;;;1.92;0.70;;;;;;;22.81;41.46;94230.72;5008969;28;20083;-92
2022/07/17 06:42:21;;;;;;;0.85;0.65;;;;;;;22.87;41.56;94241.66;5012919;28;20033;-92
2022/07/17 06:44:46;;;;;;;1.25;0.80;;;;;;;22.88;41.54;94243.91;5001507;28;20033;-92
2022/07/17 06:47:11;;;;;;;1.02;0.57;;;;;;;22.88;41.52;94240.41;4999659;28;20037;-93
2022/07/17 06:49:37;;;;;;;1.13;0.55;;;;;;;22.88;41.36;94243.91;4996959;28;20053;-93
2022/07/17 06:52:03;;;;;;;0.85;0.55;;;;;;;22.90;41.63;94252.41;4999052;28;20040;-93
2022/07/17 06:54:28;;;;;;;0.70;0.60;;;;;;;22.90;41.47;94262.69;5016562;28;20037;-93
2022/07/17 06:56:54;;;;;;;0.73;0.50;;;;;;;22.92;41.74;94260.16;4997798;28;20324;-92
2022/07/17 06:59:19;;;;;;;0.95;0.50;;;;;;;22.92;41.54;94251.91;4996283;28;20038;-93
2022/07/17 07:01:45;;;;;;;1.05;0.60;;;;;;;22.94;41.36;94257.63;5009189;28;20037;-93
2022/07/17 07:04:10;;;;;;;0.52;0.52;;;;;;;22.93;41.50;94256.16;4996444;28;20048;-92
2022/07/17 07:06:36;;;;;;;1.23;0.52;;;;;;;22.96;41.57;94257.09;5006779;28;20025;-93
2022/07/17 07:09:01;;;;;;;2.80;0.80;;;;;;;22.97;41.45;94258.59;4999819;28;20044;-91
2022/07/17 07:11:27;;;;;;;0.47;0.47;;;;;;;22.96;41.69;94255.06;4999709;28;20510;-90
2022/07/17 07:13:52;;;;;;;2.63;0.70;;;;;;;22.99;41.43;94258.81;5016557;28;20029;-93
2022/07/17 07:16:17;;;;;;;0.73;0.57;;;;;;;22.97;41.31;94253.81;5016262;28;20033;-91
2022/07/17 07:18:43;;;;;;;1.05;0.60;;;;;;;23.01;41.42;94262.53;5004561;28;20049;-94
2022/07/17 07:21:08;;;;;;;3.03;0.55;;;;;;;23.00;41.48;94263.06;4980131;28;20423;-93
2022/07/17 07:23:34;;;;;;;0.80;0.60;;;;;;;23.01;41.52;94265.31;4980949;28;20487;-93
2022/07/17 07:25:59;;;;;;;0.43;0.40;;;;;;;23.02;41.40;94253.00;4979649;28;20045;-92
2022/07/17 07:28:24;;;;;;;2.40;0.70;;;;;;;23.00;41.35;94252.78;4979753;28;20045;-92
2022/07/17 07:30:50;;;;;;;3.67;0.65;;;;;;;23.03;41.40;94265.53;4980466;28;20059;-93
2022/07/17 07:33:16;;;;;;;0.93;0.60;;;;;;;23.04;41.27;94264.25;4981075;28;20228;-92
2022/07/17 07:35:42;;;;;;;1.58;0.57;;;;;;;23.05;41.41;94273.28;4997222;28;20041;-93
2022/07/17 07:38:07;;;;;;;0.70;0.60;;;;;;;23.05;41.37;94267.75;4996287;28;20072;-92
2022/07/17 07:40:33;;;;;;;0.80;0.55;;;;;;;23.03;41.44;94271.03;5012324;28;20033;-92
2022/07/17 07:42:58;;;;;;;0.43;0.40;;;;;;;23.04;41.39;94267.00;4996223;28;20030;-91
2022/07/17 07:45:24;;;;;;;1.02;0.70;;;;;;;23.05;41.39;94268.50;5012467;28;20046;-93
2022/07/17 07:47:52;;;;;;;1.42;0.77;;;;;;;23.06;41.56;94272.00;5030342;28;20545;-93
2022/07/17 07:50:17;;;;;;;1.00;0.60;;;;;;;23.07;41.25;94273.50;5013320;28;20041;-92
2022/07/17 07:52:43;;;;;;;1.45;0.70;;;;;;;23.05;41.33;94271.28;4999797;28;20037;-93
2022/07/17 07:55:11;;;;;;;0.93;0.40;;;;;;;23.07;41.24;94268.75;4999050;28;20304;-92
2022/07/17 07:57:36;;;;;;;0.90;0.57;;;;;;;23.06;41.52;94275.53;5000062;28;20029;-93
2022/07/17 08:00:04;;;;;;;1.00;0.75;;;;;;;23.06;41.37;94264.50;5015181;28;20029;-93
2022/07/17 08:02:30;;;;;;;0.52;0.50;;;;;;;23.05;41.47;94274.03;4999200;28;20048;-92
2022/07/17 08:04:55;;;;;;;0.82;0.60;;;;;;;23.05;41.66;94276.03;4998886;28;20049;-92
2022/07/17 08:07:22;;;;;;;1.48;0.65;;;;;;;23.05;41.63;94284.31;5015589;28;20040;-94
2022/07/17 08:09:48;;;;;;;0.50;0.50;;;;;;;23.06;41.38;94281.03;4998993;28;20060;-93
2022/07/17 08:12:14;;;;;;;0.50;0.50;;;;;;;23.05;41.71;94273.28;4998824;28;20497;-92
2022/07/17 08:14:39;;;;;;;0.63;0.55;;;;;;;23.08;41.63;94280.50;4999517;28;20033;-93
2022/07/17 08:17:04;;;;;;;0.52;0.52;;;;;;;23.07;41.63;94279.03;4999017;28;20499;-93
2022/07/17 08:19:30;;;;;;;0.65;0.60;;;;;;;23.06;41.64;94280.28;5004808;28;20774;-92
2022/07/17 08:21:55;;;;;;;0.47;0.47;;;;;;;23.06;41.63;94286.56;5031720;28;20503;-93
2022/07/17 08:24:21;;;;;;;1.38;0.60;;;;;;;23.06;41.69;94281.03;5004269;28;20037;-92
2022/07/17 08:26:46;;;;;;;0.45;0.43;;;;;;;23.05;41.52;94279.53;5015751;28;20041;-92
2022/07/17 08:29:12;;;;;;;0.57;0.57;;;;;;;23.05;41.51;94278.78;4998710;28;20494;-93
2022/07/17 08:31:37;;;;;;;0.63;0.50;;;;;;;23.06;41.40;94292.06;5014314;28;20033;-93
2022/07/17 08:34:04;;;;;;;1.05;0.70;;;;;;;23.05;41.69;94282.31;5015392;28;20087;-92
2022/07/17 08:36:30;;;;;;;0.65;0.57;;;;;;;23.05;41.47;94284.31;4998001;28;20049;-94
2022/07/17 08:38:55;;;;;;;1.15;0.50;;;;;;;23.04;41.38;94289.09;5015086;28;20029;-92
2022/07/17 08:41:22;;;;;;;0.82;0.82;;;;;;;23.04;41.29;94282.81;4997205;28;20449;-93
2022/07/17 08:43:48;;;;;;;0.80;0.60;;;;;;;23.04;41.44;94283.56;4999309;28;20029;-93
2022/07/17 08:46:13;;;;;;;1.10;0.80;;;;;;;23.06;41.45;94285.81;4996775;28;20036;-92
2022/07/17 08:48:41;;;;;;;0.73;0.60;;;;;;;23.04;41.53;94277.31;4998747;28;20040;-93
2022/07/17 08:51:07;;;;;;;1.60;0.40;;;;;;;23.05;41.51;94289.81;5013614;28;20501;-92
2022/07/17 08:53:33;;;;;;;0.40;0.40;;;;;;;23.04;41.46;94278.06;5011205;28;20026;-92
2022/07/17 08:55:58;;;;;;;0.50;0.50;;;;;;;23.05;41.69;94282.31;4997856;28;20087;-93
2022/07/17 08:58:23;;;;;;;0.55;0.55;;;;;;;23.03;41.89;94279.31;5013092;28;20110;-92
2022/07/17 09:00:50;;;;;;;0.47;0.47;;;;;;;23.03;41.58;94282.06;5013581;28;20041;-93
2022/07/17 09:03:16;;;;;;;0.50;0.50;;;;;;;23.02;41.57;94283.34;4997430;28;20040;-93
2022/07/17 09:05:41;;;;;;;0.32;0.32;;;;;;;23.04;41.38;94283.56;4998276;28;20124;-93
2022/07/17 09:08:08;;;;;;;0.50;0.50;;;;;;;23.01;41.73;94284.59;4998490;28;20037;-93
2022/07/17 09:10:35;;;;;;;0.52;0.50;;;;;;;23.01;41.56;94281.84;4997672;28;20069;-93
2022/07/17 09:13:00;;;;;;;0.40;0.40;;;;;;;23.01;41.73;94281.09;5030656;28;20043;-93
2022/07/17 09:15:27;;;;;;;0.50;0.50;;;;;;;23.00;41.59;94285.88;4997943;28;20041;-93
2022/07/17 09:17:54;;;;;;;0.47;0.47;;;;;;;23.01;41.78;94281.84;5003653;28;20057;-93
2022/07/17 09:20:20;;;;;;;1.23;0.68;;;;;;;23.01;41.50;94275.59;5029700;28;20045;-93
2022/07/17 09:23:06;;;;;;;0.40;0.40;;;;;;;22.99;41.65;94280.88;5030915;28;20159;-91
2022/07/17 09:25:34;;;;;;;0.65;0.43;;;;;;;23.01;41.68;94281.09;5029766;28;20033;-93
2022/07/17 09:28:02;;;;;;;0.82;0.57;;;;;;;23.00;41.73;94283.09;5020285;28;20038;-92
2022/07/17 09:30:27;;;;;;;0.80;0.60;;;;;;;23.00;41.68;94283.09;4977940;28;20052;-93
2022/07/17 09:32:54;;;;;;;0.65;0.65;;;;;;;23.00;41.68;94288.63;4977843;28;20034;-93
2022/07/17 09:35:21;;;;;;;0.50;0.50;;;;;;;23.01;41.71;94287.34;4993865;28;20037;-93
2022/07/17 09:37:46;;;;;;;1.05;0.63;;;;;;;23.02;41.63;94277.06;4994462;28;20065;-92
2022/07/17 09:42:56;;;;;;;0.80;0.60;;;;;;;23.00;41.70;94274.84;5013849;28;20037;-93
2022/07/17 09:45:22;;;;;;;1.65;0.70;;;;;;;23.00;41.81;94282.38;4994115;28;20029;-93
2022/07/17 09:47:47;;;;;;;0.68;0.57;;;;;;;23.01;41.89;94278.34;4994787;28;20029;-92
2022/07/17 09:50:13;;;;;;;0.50;0.50;;;;;;;23.02;41.89;94277.06;4994339;28;20399;-93
2022/07/17 09:52:38;;;;;;;0.50;0.50;;;;;;;23.01;41.82;94275.59;4994362;28;20029;-92
2022/07/17 09:55:04;;;;;;;3.58;0.60;;;;;;;23.01;41.71;94276.34;5010706;28;20030;-93
2022/07/17 09:57:31;;;;;;;0.50;0.50;;;;;;;23.02;41.82;94282.59;4993512;28;20037;-93
2022/07/17 10:00:11;;;;;;;0.60;0.50;;;;;;;22.99;41.68;94278.84;4994309;28;20041;-93
2022/07/17 10:02:37;;;;;;;0.98;0.65;;;;;;;23.01;41.79;94273.56;4978128;28;20511;-92
2022/07/17 10:05:03;;;;;;;0.60;0.40;;;;;;;23.03;41.60;94282.06;4977929;28;20045;-93
2022/07/17 10:07:28;;;;;;;0.50;0.43;;;;;;;23.02;41.76;94271.56;4986444;28;20041;-92
2022/07/17 10:09:54;;;;;;;1.20;0.40;;;;;;;23.02;41.68;94279.84;4981274;28;20484;-93
2022/07/17 10:12:19;;;;;;;0.65;0.60;;;;;;;23.02;41.95;94272.31;4992639;28;20115;-94
2022/07/17 10:14:48;;;;;;;0.60;0.50;;;;;;;23.02;41.60;94279.84;4978183;28;20041;-93
2022/07/17 10:17:13;;;;;;;1.38;0.63;;;;;;;23.01;41.88;94278.34;4988038;28;20045;-93
2022/07/17 10:19:53;;;;;;;0.38;0.38;;;;;;;23.01;41.92;94281.84;4989470;28;20041;-93
2022/07/17 10:22:18;;;;;;;0.50;0.50;;;;;;;23.03;41.94;94289.59;5012902;28;20506;-93
2022/07/17 10:24:52;;;;;;;0.60;0.40;;;;;;;23.00;41.66;94279.59;4997496;28;20048;-93
2022/07/17 10:27:19;;;;;;;0.50;0.50;;;;;;;23.02;41.86;94280.56;5031567;28;20560;-92
2022/07/17 10:29:45;;;;;;;0.50;0.50;;;;;;;23.03;41.87;94276.56;5017940;28;20044;-93
2022/07/17 10:32:18;;;;;;;0.45;0.43;;;;;;;23.01;41.71;94273.56;4996393;28;20037;-93
2022/07/17 10:34:48;;;;;;;0.50;0.50;;;;;;;23.02;41.91;94277.81;4981827;28;20038;-94
2022/07/17 10:37:38;;;;;;;1.15;0.93;;;;;;;23.03;41.83;94259.25;4997324;28;20033;-93
2022/07/17 10:40:17;;;;;;;0.50;0.50;;;;;;;23.01;41.97;94251.50;4984973;28;20100;-91
2022/07/17 10:42:58;;;;;;;0.60;0.52;;;;;;;23.00;41.86;94250.03;4981896;28;20067;-92
2022/07/17 10:45:39;;;;;;;0.40;0.40;;;;;;;23.00;42.18;94252.03;4996814;28;20038;-93
2022/07/17 10:48:15;;;;;;;0.52;0.52;;;;;;;23.01;41.95;94259.78;4998054;28;20491;-93
2022/07/17 10:50:45;;;;;;;0.40;0.40;;;;;;;23.00;42.15;94261.03;5013230;28;20140;-91
2022/07/17 10:53:17;;;;;;;0.50;0.50;;;;;;;23.02;41.92;94269.56;4981075;28;20077;-93
2022/07/17 10:55:44;;;;;;;0.40;0.40;;;;;;;23.01;41.98;94264.56;4997920;28;20041;-94
2022/07/17 10:58:18;;;;;;;0.50;0.50;;;;;;;23.01;41.99;94256.28;4980877;28;20116;-94
2022/07/17 11:00:44;;;;;;;0.60;0.60;;;;;;;23.03;42.19;94270.28;4981752;28;20491;-93
2022/07/17 11:03:10;;;;;;;0.85;0.70;;;;;;;23.02;42.00;94272.31;4980794;28;20153;-93
2022/07/17 11:05:36;;;;;;;0.60;0.60;;;;;;;23.02;42.00;94266.03;4995290;28;20045;-92
2022/07/17 11:08:02;;;;;;;0.65;0.60;;;;;;;23.02;41.96;94268.81;4997152;28;20438;-93
2022/07/17 11:10:28;;;;;;;0.47;0.43;;;;;;;23.02;42.24;94258.53;4997403;28;20551;-93
2022/07/17 11:13:08;;;;;;;0.73;0.60;;;;;;;23.01;41.95;94259.78;4996115;28;20112;-92
2022/07/17 11:15:45;;;;;;;0.65;0.50;;;;;;;23.01;41.91;94261.78;4996756;28;20044;-94
2022/07/17 11:18:19;;;;;;;0.60;0.60;;;;;;;23.00;42.10;94263.81;5004524;28;20029;-92
2022/07/17 11:20:50;;;;;;;0.50;0.50;;;;;;;23.02;42.10;94266.78;5033287;28;20037;-93
2022/07/17 11:23:17;;;;;;;1.13;0.50;;;;;;;23.03;42.12;94262.03;5016304;28;20036;-92
2022/07/17 11:26:00;;;;;;;0.77;0.77;;;;;;;23.01;42.13;94264.56;5016583;28;20069;-92
2022/07/17 11:28:30;;;;;;;0.55;0.55;;;;;;;23.01;42.08;94262.53;5048728;28;20593;-92
2022/07/17 11:30:56;;;;;;;0.82;0.60;;;;;;;23.03;42.01;94271.03;5017097;28;20033;-93
2022/07/17 11:33:21;;;;;;;0.50;0.50;;;;;;;23.03;41.88;94260.00;5009564;28;20103;-92